Time;durP1;ratioP1;P1;durP2;ratioP2;P2;SDS_P1;SDS_P2;PMS_P1;PMS_P2;Temp;Humidity;BMP_temperature;BMP_pressure;BME280_temperature;BME280_humidity;BME280_pressure;Samples;Min_cycle;Max_cycle;Signal;HPM_P1;HPM_P2
2023/05/04 00:01:40;;;;;;;0.55;0.55;;;;;;;13.65;45.84;101640.59;5192874;28;20068;-85
2023/05/04 00:04:30;;;;;;;1.35;0.45;;;;;;;13.63;46.05;101635.34;5182166;28;20044;-82
2023/05/04 00:07:21;;;;;;;0.43;0.43;;;;;;;13.56;45.93;101632.91;5183089;28;20540;-81
2023/05/04 00:10:12;;;;;;;0.60;0.60;;;;;;;13.58;46.26;101631.09;5197463;28;20033;-85
2023/05/04 00:13:03;;;;;;;0.55;0.55;;;;;;;13.57;46.43;101624.94;5175989;28;20060;-82
2023/05/04 00:15:53;;;;;;;0.93;0.93;;;;;;;13.58;46.29;101623.19;5196151;28;20411;-86
2023/05/04 00:18:44;;;;;;;0.35;0.35;;;;;;;13.56;46.67;101622.34;5190229;28;20038;-82
2023/05/04 00:21:35;;;;;;;0.70;0.68;;;;;;;13.52;46.60;101621.56;5181985;28;20701;-84
2023/05/04 00:24:27;;;;;;;0.43;0.43;;;;;;;13.53;46.81;101618.03;5198057;28;20104;-82
2023/05/04 00:27:17;;;;;;;1.55;0.95;;;;;;;13.49;46.97;101614.59;5196272;28;20038;-86
2023/05/04 00:30:10;;;;;;;0.43;0.43;;;;;;;13.41;46.11;101616.56;5184040;28;20120;-81
2023/05/04 00:33:00;;;;;;;0.40;0.40;;;;;;;13.38;46.93;101613.97;5182599;28;20041;-82
2023/05/04 00:35:51;;;;;;;0.50;0.50;;;;;;;13.33;46.60;101619.34;5180441;28;20029;-83
2023/05/04 00:38:49;;;;;;;0.65;0.65;;;;;;;13.35;47.37;101608.75;5194195;28;20041;-83
2023/05/04 00:41:40;;;;;;;0.30;0.30;;;;;;;13.33;47.59;101606.16;5181791;28;20035;-83
2023/05/04 00:44:33;;;;;;;0.80;0.80;;;;;;;13.34;47.38;101601.78;5198287;28;20041;-82
2023/05/04 00:47:24;;;;;;;0.37;0.37;;;;;;;13.29;47.63;101593.97;5181972;28;20075;-82
2023/05/04 00:50:15;;;;;;;2.55;1.23;;;;;;;13.31;47.99;101596.56;5197650;28;20106;-82
2023/05/04 00:53:08;;;;;;;0.60;0.60;;;;;;;13.26;48.00;101593.19;5184209;28;20400;-81
2023/05/04 00:56:00;;;;;;;0.63;0.63;;;;;;;13.23;47.29;101594.09;5181083;28;20048;-85
2023/05/04 00:58:53;;;;;;;0.40;0.40;;;;;;;13.25;48.30;101592.31;5180400;28;20056;-83
2023/05/04 01:01:44;;;;;;;0.40;0.40;;;;;;;13.21;48.18;101583.63;5191374;28;20040;-82
2023/05/04 01:04:34;;;;;;;0.60;0.60;;;;;;;13.19;48.08;101579.28;5183121;28;20037;-84
2023/05/04 01:07:57;;;;;;;1.15;1.05;;;;;;;13.17;47.98;101579.34;5181966;28;20069;-82
2023/05/04 01:11:06;;;;;;;2.67;1.45;;;;;;;13.12;48.20;101582.97;5197483;28;20109;-85
2023/05/04 01:14:00;;;;;;;1.38;0.65;;;;;;;13.06;48.00;101582.19;5194814;28;20540;-86
2023/05/04 01:16:55;;;;;;;;;;;;;;;13.06;48.20;101579.56;5197580;28;23104;-85
2023/05/04 01:19:46;;;;;;;1.00;0.98;;;;;;;13.02;48.62;101574.41;5211475;28;19975;-81
2023/05/04 01:22:37;;;;;;;0.52;0.52;;;;;;;12.94;48.05;101568.44;5180956;28;20029;-81
2023/05/04 01:25:35;;;;;;;0.70;0.70;;;;;;;12.84;48.88;101563.44;5184835;28;20034;-83
2023/05/04 01:28:40;;;;;;;0.50;0.50;;;;;;;12.82;48.25;101562.59;5193315;28;20064;-81
2023/05/04 01:31:35;;;;;;;0.60;0.60;;;;;;;12.78;48.44;101563.53;5180853;28;20049;-81
2023/05/04 01:34:26;;;;;;;0.30;0.30;;;;;;;12.79;49.11;101565.28;5190527;28;20128;-84
2023/05/04 01:39:53;;;;;;;0.47;0.47;;;;;;;12.50;48.90;101563.28;5183966;28;20041;-83
2023/05/04 01:42:45;;;;;;;0.40;0.40;;;;;;;12.53;48.73;101571.97;5176544;28;20334;-83
2023/05/04 01:45:36;;;;;;;0.60;0.60;;;;;;;12.47;49.10;101566.84;5195491;28;20383;-83
2023/05/04 01:48:27;;;;;;;0.30;0.30;;;;;;;12.49;49.07;101575.59;5203304;28;20041;-83
2023/05/04 01:51:21;;;;;;;0.65;0.65;;;;;;;12.47;48.63;101571.28;5216589;28;20370;-83
2023/05/04 01:54:15;;;;;;;0.75;0.75;;;;;;;12.47;49.42;101576.53;5201157;28;20068;-83
2023/05/04 01:57:06;;;;;;;;;;;;;;;12.47;49.41;101572.13;5183242;28;20391;-83
2023/05/04 01:59:57;;;;;;;0.60;0.60;;;;;;;12.44;49.16;101578.31;5194958;28;20343;-83
2023/05/04 02:02:48;;;;;;;0.35;0.35;;;;;;;12.42;49.18;101568.72;5177022;28;20050;-82
2023/05/04 02:05:38;;;;;;;0.50;0.50;;;;;;;12.37;49.29;101573.22;5177699;28;20021;-83
2023/05/04 02:08:29;;;;;;;0.30;0.30;;;;;;;12.36;49.22;101568.84;5175228;28;20041;-83
2023/05/04 02:11:20;;;;;;;0.50;0.50;;;;;;;12.35;50.11;101562.72;5177610;28;20461;-83
2023/05/04 02:14:11;;;;;;;2.78;1.48;;;;;;;12.35;50.18;101559.25;5174798;28;20038;-83
2023/05/04 02:17:02;;;;;;;1.00;0.95;;;;;;;12.37;50.17;101560.94;5187797;28;20267;-83
2023/05/04 02:19:53;;;;;;;0.40;0.40;;;;;;;12.31;49.67;101565.44;5176937;28;20115;-83
2023/05/04 02:22:44;;;;;;;0.30;0.30;;;;;;;12.26;50.16;101553.28;5162960;28;20041;-83
2023/05/04 02:25:39;;;;;;;0.47;0.47;;;;;;;12.23;49.93;101558.59;5175140;28;20085;-82
2023/05/04 02:28:30;;;;;;;0.57;0.50;;;;;;;12.21;49.71;101554.25;5168743;28;20061;-82
2023/05/04 02:31:21;;;;;;;1.13;1.13;;;;;;;12.21;50.46;101552.47;5201841;28;20072;-82
2023/05/04 02:34:11;;;;;;;2.03;1.92;;;;;;;12.18;49.85;101552.56;5161964;28;20140;-82
2023/05/04 02:37:03;;;;;;;0.60;0.60;;;;;;;12.18;50.11;101546.41;5200848;28;20073;-83
2023/05/04 02:39:53;;;;;;;11.10;0.73;;;;;;;12.14;50.36;101548.25;5175872;28;20331;-83
2023/05/04 02:42:44;;;;;;;0.52;0.52;;;;;;;12.12;50.05;101544.78;5173996;28;20037;-83
2023/05/04 02:45:35;;;;;;;0.68;0.68;;;;;;;12.06;50.11;101545.78;5174765;28;20026;-83
2023/05/04 02:48:26;;;;;;;0.75;0.75;;;;;;;12.07;50.53;101552.75;5174517;28;20060;-83
2023/05/04 02:51:20;;;;;;;0.60;0.60;;;;;;;11.99;50.22;101543.31;5186026;28;20412;-83
2023/05/04 02:54:10;;;;;;;0.40;0.40;;;;;;;11.92;50.48;101556.53;5188756;28;20034;-83
2023/05/04 02:57:01;;;;;;;0.68;0.68;;;;;;;11.92;50.49;101546.03;5171941;28;20088;-83
2023/05/04 02:59:52;;;;;;;0.65;0.65;;;;;;;11.92;51.01;101553.03;5200192;28;20101;-83
2023/05/04 03:02:43;;;;;;;0.47;0.47;;;;;;;11.90;50.43;101550.44;5172982;28;20062;-83
2023/05/04 03:05:34;;;;;;;0.30;0.30;;;;;;;11.88;50.43;101546.97;5174319;28;20030;-83
2023/05/04 03:08:24;;;;;;;0.88;0.88;;;;;;;11.82;50.81;101545.31;5174375;28;20385;-83
2023/05/04 03:11:15;;;;;;;0.70;0.70;;;;;;;11.80;50.92;101548.88;5176413;28;20030;-83
2023/05/04 03:14:06;;;;;;;0.77;0.77;;;;;;;11.75;50.42;101545.47;5156472;28;20046;-83
2023/05/04 03:16:57;;;;;;;1.10;1.08;;;;;;;11.74;50.88;101544.59;5161565;28;20046;-83
2023/05/04 03:19:48;;;;;;;0.43;0.43;;;;;;;11.71;50.45;101543.78;5173562;28;20057;-83
2023/05/04 03:22:38;;;;;;;0.52;0.52;;;;;;;11.70;51.31;101535.03;5187744;28;20080;-83
2023/05/04 03:25:29;;;;;;;0.68;0.60;;;;;;;11.59;50.41;101532.63;5173630;28;20404;-83
2023/05/04 03:28:20;;;;;;;0.40;0.40;;;;;;;11.57;50.50;101536.19;5154888;28;20041;-83
2023/05/04 03:31:11;;;;;;;0.90;0.90;;;;;;;11.55;50.91;101527.44;5174370;28;20025;-83
2023/05/04 03:34:02;;;;;;;0.20;0.20;;;;;;;11.48;51.15;101521.44;5176062;28;20061;-83
2023/05/04 03:36:53;;;;;;;0.63;0.63;;;;;;;11.49;51.47;101518.75;5160654;28;20416;-83
2023/05/04 03:39:44;;;;;;;0.60;0.60;;;;;;;11.48;51.73;101508.28;5174068;28;20518;-82
2023/05/04 03:42:36;;;;;;;1.08;0.98;;;;;;;11.37;51.27;101513.75;5174448;28;20069;-83
2023/05/04 03:45:28;;;;;;;0.63;0.63;;;;;;;11.32;51.36;101513.81;5188363;28;20022;-83
2023/05/04 03:48:18;;;;;;;0.40;0.40;;;;;;;11.28;51.00;101513.91;5186624;28;20034;-82
2023/05/04 03:51:09;;;;;;;1.75;0.82;;;;;;;11.34;52.41;101511.16;5168776;28;20026;-83
2023/05/04 03:54:01;;;;;;;1.50;1.45;;;;;;;11.01;53.08;101516.97;5174249;28;20399;-83
2023/05/04 03:56:52;;;;;;;0.50;0.50;;;;;;;10.90;52.43;101521.50;5174026;28;20025;-82
2023/05/04 03:59:42;;;;;;;0.70;0.70;;;;;;;11.08;51.56;101524.75;5155991;28;20050;-82
2023/05/04 04:02:33;;;;;;;0.35;0.35;;;;;;;10.96;52.07;101517.94;5176235;28;20055;-83
2023/05/04 04:05:24;;;;;;;0.47;0.47;;;;;;;10.82;52.46;101523.38;5161412;28;20045;-82
2023/05/04 04:08:15;;;;;;;0.55;0.52;;;;;;;10.96;53.00;101518.78;5177246;28;20045;-83
2023/05/04 04:11:06;;;;;;;0.60;0.60;;;;;;;10.90;51.90;101518.88;5178619;28;20121;-83
2023/05/04 04:14:02;;;;;;;0.55;0.55;;;;;;;10.92;51.80;101519.75;5166238;28;20030;-83
2023/05/04 04:16:53;;;;;;;1.10;1.10;;;;;;;10.93;51.38;101510.09;5192904;28;20471;-83
2023/05/04 04:19:43;;;;;;;0.68;0.68;;;;;;;10.85;52.05;101515.47;5163275;28;20637;-83
2023/05/04 04:22:37;;;;;;;0.75;0.75;;;;;;;10.82;51.59;101512.88;5165645;28;20473;-83
2023/05/04 04:25:28;;;;;;;0.32;0.32;;;;;;;10.84;51.52;101524.25;5190904;28;20030;-83
2023/05/04 04:28:19;;;;;;;0.30;0.30;;;;;;;10.78;51.75;101524.34;5158273;28;20038;-82
2023/05/04 04:31:09;;;;;;;0.50;0.50;;;;;;;10.75;51.74;101529.63;5180295;28;20035;-82
2023/05/04 04:34:00;;;;;;;0.57;0.57;;;;;;;10.73;51.83;101532.28;5178867;28;20037;-81
2023/05/04 04:36:51;;;;;;;1.75;1.15;;;;;;;10.76;51.79;101520.88;5175498;28;20389;-82
2023/05/04 04:39:42;;;;;;;0.68;0.68;;;;;;;10.73;52.13;101519.16;5177818;28;20096;-82
2023/05/04 04:42:33;;;;;;;1.08;1.08;;;;;;;10.58;53.23;101528.13;5173378;28;20050;-82
2023/05/04 04:45:24;;;;;;;2.53;1.27;;;;;;;10.57;52.49;101528.16;5173285;28;20038;-82
2023/05/04 04:48:15;;;;;;;0.63;0.63;;;;;;;10.49;53.53;101525.63;5191282;28;20117;-81
2023/05/04 04:51:12;;;;;;;0.65;0.65;;;;;;;10.70;53.04;101527.91;5173786;28;20022;-82
2023/05/04 04:54:03;;;;;;;0.60;0.60;;;;;;;10.78;52.85;101524.34;5158914;28;20084;-81
2023/05/04 04:56:54;;;;;;;0.45;0.45;;;;;;;10.75;52.67;101527.00;5174490;28;20128;-82
2023/05/04 04:59:45;;;;;;;0.50;0.50;;;;;;;10.79;52.18;101532.19;5173709;28;20038;-82
2023/05/04 05:02:36;;;;;;;0.77;0.77;;;;;;;10.80;52.56;101533.03;5187878;28;20038;-82
2023/05/04 05:05:27;;;;;;;1.45;0.85;;;;;;;10.85;52.07;101537.34;5161760;28;20029;-81
2023/05/04 05:08:17;;;;;;;0.65;0.65;;;;;;;10.80;52.37;101533.03;5174223;28;20038;-81
2023/05/04 05:11:09;;;;;;;4.32;1.60;;;;;;;10.82;52.59;101526.03;5174784;28;20566;-81
2023/05/04 05:14:00;;;;;;;0.45;0.45;;;;;;;10.82;54.44;101523.38;5175984;28;20205;-81
2023/05/04 05:16:51;;;;;;;0.40;0.40;;;;;;;10.61;55.97;101522.84;5179601;28;20528;-81
2023/05/04 05:19:42;;;;;;;0.30;0.30;;;;;;;10.49;55.08;101517.75;5177582;28;20575;-82
2023/05/04 05:22:33;;;;;;;0.40;0.40;;;;;;;10.36;57.14;101523.16;5194284;28;20107;-82
2023/05/04 05:25:24;;;;;;;0.40;0.40;;;;;;;10.57;54.76;101520.28;5167828;28;20037;-81
2023/05/04 05:28:14;;;;;;;1.38;1.33;;;;;;;10.78;54.10;101519.09;5196170;28;20098;-81
2023/05/04 05:31:05;;;;;;;0.47;0.47;;;;;;;10.61;55.73;101519.31;5163430;28;20113;-81
2023/05/04 05:33:56;;;;;;;3.00;1.75;;;;;;;10.77;54.34;101512.09;5161301;28;20038;-81
2023/05/04 05:36:47;;;;;;;0.40;0.40;;;;;;;10.72;55.89;101514.78;5177404;28;20421;-81
2023/05/04 05:39:38;;;;;;;0.38;0.38;;;;;;;10.74;55.40;101507.78;5176097;28;20526;-81
2023/05/04 05:42:29;;;;;;;0.82;0.82;;;;;;;10.90;54.02;101510.16;5174787;28;20046;-81
2023/05/04 05:45:20;;;;;;;0.20;0.20;;;;;;;10.88;53.84;101515.41;5176302;28;20373;-81
2023/05/04 05:48:11;;;;;;;1.15;1.10;;;;;;;10.89;54.24;101514.53;5178225;28;20034;-81
2023/05/04 05:51:02;;;;;;;0.65;0.65;;;;;;;10.94;54.97;101517.97;5161999;28;20510;-81
2023/05/04 05:53:53;;;;;;;0.20;0.20;;;;;;;11.16;53.77;101509.72;5171921;28;20378;-81
2023/05/04 05:56:44;;;;;;;0.50;0.50;;;;;;;11.13;53.75;101504.50;5158039;28;20148;-82
2023/05/04 05:59:35;;;;;;;1.52;1.23;;;;;;;11.12;53.82;101514.16;5172818;28;20061;-82
2023/05/04 06:02:25;;;;;;;0.30;0.30;;;;;;;11.20;53.68;101502.66;5157631;28;20244;-81
2023/05/04 06:05:16;;;;;;;0.35;0.35;;;;;;;11.33;53.63;101515.56;5174072;28;20045;-82
2023/05/04 06:08:07;;;;;;;0.52;0.52;;;;;;;11.43;53.01;101513.63;5172962;28;20069;-82
2023/05/04 06:10:58;;;;;;;0.30;0.30;;;;;;;11.47;53.11;101510.06;5158356;28;20121;-81
2023/05/04 06:13:49;;;;;;;0.40;0.40;;;;;;;11.43;54.28;101508.38;5171860;28;20370;-81
2023/05/04 06:16:40;;;;;;;0.60;0.60;;;;;;;11.49;53.72;101505.63;5187542;28;20034;-81
2023/05/04 06:19:35;;;;;;;0.47;0.47;;;;;;;11.57;53.68;101505.50;5178502;28;20041;-82
2023/05/04 06:22:25;;;;;;;0.30;0.30;;;;;;;11.64;53.45;101499.22;5173471;28;20053;-82
2023/05/04 06:25:16;;;;;;;0.43;0.43;;;;;;;11.64;53.81;101495.75;5166784;28;20042;-81
2023/05/04 06:28:07;;;;;;;0.35;0.35;;;;;;;11.67;54.66;101495.66;5184593;28;20038;-81
2023/05/04 06:30:58;;;;;;;1.33;1.23;;;;;;;11.77;53.39;101499.84;5163332;28;20048;-82
2023/05/04 06:33:49;;;;;;;1.10;1.10;;;;;;;11.72;54.54;101501.72;5162820;28;20046;-81
2023/05/04 06:36:41;;;;;;;0.90;0.90;;;;;;;11.87;53.82;101497.03;5174788;28;20414;-82
2023/05/04 06:39:31;;;;;;;0.43;0.43;;;;;;;11.89;53.96;101496.09;5188563;28;20254;-82
2023/05/04 06:42:22;;;;;;;0.43;0.43;;;;;;;11.95;54.20;101489.88;5174072;28;20105;-83
2023/05/04 06:45:13;;;;;;;0.73;0.73;;;;;;;12.07;53.50;101499.28;5168010;28;20069;-83
2023/05/04 06:48:04;;;;;;;0.30;0.30;;;;;;;12.19;53.14;101488.50;5192429;28;20135;-84
2023/05/04 06:50:56;;;;;;;0.32;0.32;;;;;;;12.24;53.21;101484.03;5170945;28;20127;-82
2023/05/04 06:53:46;;;;;;;0.30;0.30;;;;;;;12.32;53.49;101482.97;5180446;28;20045;-82
2023/05/04 06:56:38;;;;;;;0.38;0.38;;;;;;;12.27;54.05;101477.81;5164171;28;20030;-82
2023/05/04 06:59:29;;;;;;;0.40;0.40;;;;;;;12.36;53.39;101482.00;5170226;28;20033;-81
2023/05/04 07:02:20;;;;;;;0.30;0.30;;;;;;;12.44;53.33;101482.69;5179054;28;20037;-83
2023/05/04 07:05:11;;;;;;;0.82;0.82;;;;;;;12.49;53.66;101470.31;5179399;28;20072;-83
2023/05/04 07:08:02;;;;;;;0.50;0.50;;;;;;;12.45;54.89;101473.91;5178516;28;20037;-81
2023/05/04 07:10:53;;;;;;;0.40;0.40;;;;;;;12.57;53.81;101470.13;5169279;28;20022;-82
2023/05/04 07:13:44;;;;;;;0.40;0.40;;;;;;;12.73;52.81;101471.47;5177511;28;20045;-82
2023/05/04 07:16:34;;;;;;;3.03;1.85;;;;;;;12.63;53.95;101474.38;5174768;28;20054;-81
2023/05/04 07:19:26;;;;;;;0.57;0.57;;;;;;;12.73;53.62;101470.63;5187544;28;20038;-81
2023/05/04 07:22:17;;;;;;;0.25;0.25;;;;;;;12.83;53.63;101466.88;5177490;28;20103;-81
2023/05/04 07:25:08;;;;;;;0.40;0.40;;;;;;;12.90;53.45;101465.81;5204859;28;20092;-81
2023/05/04 07:27:59;;;;;;;0.50;0.50;;;;;;;12.95;53.23;101462.19;5177143;28;20072;-82
2023/05/04 07:30:50;;;;;;;3.00;1.45;;;;;;;12.99;53.35;101459.44;5201616;28;20106;-81
2023/05/04 07:33:41;;;;;;;0.85;0.85;;;;;;;12.95;52.91;101455.16;5177953;28;20029;-81
2023/05/04 07:36:35;;;;;;;0.28;0.28;;;;;;;13.06;53.41;101455.75;5177269;28;20084;-81
2023/05/04 07:41:59;;;;;;;0.82;0.82;;;;;;;13.22;52.89;101445.69;5211142;28;19935;-83
2023/05/04 07:44:51;;;;;;;0.43;0.43;;;;;;;13.26;53.08;101440.34;5218566;28;20107;-83
2023/05/04 07:47:41;;;;;;;0.20;0.20;;;;;;;13.31;53.18;101433.16;5209284;28;20491;-82
2023/05/04 07:50:33;;;;;;;0.50;0.50;;;;;;;13.35;53.25;101434.78;5198168;28;20029;-83
2023/05/04 07:53:25;;;;;;;0.40;0.40;;;;;;;13.43;53.02;101437.25;5204818;28;20045;-86
2023/05/04 07:56:15;;;;;;;0.40;0.40;;;;;;;13.57;52.68;101440.38;5185888;28;20036;-84
2023/05/04 07:59:06;;;;;;;1.35;1.25;;;;;;;13.54;52.77;101432.56;5195033;28;20048;-84
2023/05/04 08:01:57;;;;;;;0.60;0.57;;;;;;;13.63;52.87;101428.78;5196554;28;20045;-84
2023/05/04 08:04:48;;;;;;;0.57;0.57;;;;;;;13.63;52.72;101429.69;5197049;28;20038;-84
2023/05/04 08:07:39;;;;;;;0.65;0.65;;;;;;;13.72;52.71;101425.91;5186177;28;20041;-83
2023/05/04 08:10:30;;;;;;;0.30;0.30;;;;;;;13.74;52.44;101418.81;5187418;28;20018;-84
2023/05/04 08:13:21;;;;;;;0.77;0.77;;;;;;;13.80;52.66;101415.97;5190611;28;20069;-84
2023/05/04 08:16:12;;;;;;;0.40;0.40;;;;;;;13.91;53.09;101417.44;5200448;28;20037;-84
2023/05/04 08:19:03;;;;;;;0.30;0.30;;;;;;;13.96;52.89;101415.53;5196032;28;20041;-84
2023/05/04 08:21:54;;;;;;;0.38;0.38;;;;;;;14.07;51.83;101413.44;5201476;28;20053;-84
2023/05/04 08:24:46;;;;;;;0.52;0.52;;;;;;;14.09;52.19;101410.75;5184919;28;20044;-84
2023/05/04 08:27:38;;;;;;;0.30;0.30;;;;;;;14.12;53.06;101403.59;5183407;28;20121;-84
2023/05/04 08:30:30;;;;;;;0.55;0.43;;;;;;;14.24;52.26;101404.13;5186011;28;20088;-84
2023/05/04 08:33:20;;;;;;;0.57;0.57;;;;;;;14.26;52.49;101407.56;5188641;28;20056;-83
2023/05/04 08:36:11;;;;;;;0.28;0.28;;;;;;;14.42;51.92;101400.88;5183074;28;20033;-83
2023/05/04 08:39:02;;;;;;;0.50;0.50;;;;;;;14.43;52.30;101399.97;5186373;28;20038;-84
2023/05/04 08:41:53;;;;;;;0.77;0.77;;;;;;;14.51;52.24;101397.09;5184985;28;20021;-84
2023/05/04 08:44:45;;;;;;;3.15;1.75;;;;;;;14.56;52.02;101394.31;5184115;28;20131;-83
2023/05/04 08:47:36;;;;;;;1.35;1.25;;;;;;;14.61;52.44;101393.25;5180425;28;20060;-83
2023/05/04 08:50:27;;;;;;;0.55;0.55;;;;;;;14.68;52.76;101391.28;5183951;28;20025;-84
2023/05/04 08:53:20;;;;;;;0.70;0.70;;;;;;;14.81;52.58;101393.50;5201726;28;20137;-83
2023/05/04 08:56:12;;;;;;;0.85;0.85;;;;;;;14.88;52.23;101381.81;5199070;28;20034;-82
2023/05/04 08:59:04;;;;;;;0.30;0.30;;;;;;;14.90;52.04;101395.84;5194681;28;20041;-83
2023/05/04 09:01:57;;;;;;;0.40;0.40;;;;;;;15.00;52.52;101391.94;5182904;28;20058;-83
2023/05/04 09:04:49;;;;;;;;;;;;;;;15.06;52.28;101380.31;5189052;28;20045;-84
2023/05/04 09:07:39;;;;;;;0.43;0.43;;;;;;;15.08;52.82;101383.75;5200918;28;19944;-82
2023/05/04 09:10:30;;;;;;;2.08;0.95;;;;;;;15.10;52.34;101380.13;5196855;28;20022;-84
2023/05/04 09:13:21;;;;;;;0.40;0.40;;;;;;;15.22;53.18;101378.84;5201972;28;20120;-83
2023/05/04 09:16:13;;;;;;;8.40;1.00;;;;;;;15.26;52.78;101366.38;5190046;28;20117;-83
2023/05/04 09:19:17;;;;;;;1.27;0.88;;;;;;;15.41;52.26;101360.50;5191918;28;20041;-84
2023/05/04 09:22:18;;;;;;;0.30;0.30;;;;;;;15.47;52.21;101348.84;5182695;28;20513;-83
2023/05/04 09:25:11;;;;;;;0.45;0.45;;;;;;;15.57;51.79;101342.28;5200433;28;20129;-83
2023/05/04 09:28:01;;;;;;;1.95;0.65;;;;;;;15.54;52.28;101341.56;5211644;28;20033;-83
2023/05/04 09:30:59;;;;;;;1.50;0.98;;;;;;;15.67;52.04;101345.44;5204395;28;20034;-84
2023/05/04 09:33:55;;;;;;;0.73;0.73;;;;;;;15.73;52.28;101337.28;5186446;28;20037;-85
2023/05/04 09:36:57;;;;;;;0.73;0.73;;;;;;;15.80;51.83;101339.69;5203930;28;20085;-83
2023/05/04 09:39:56;;;;;;;0.75;0.75;;;;;;;16.00;51.65;101341.56;5190602;28;20060;-84
2023/05/04 09:42:55;;;;;;;5.43;2.38;;;;;;;16.11;51.93;101342.00;5204295;28;20097;-83
2023/05/04 09:45:47;;;;;;;2.47;1.55;;;;;;;16.02;52.10;101337.94;5198530;28;20091;-84
2023/05/04 09:48:49;;;;;;;0.82;0.82;;;;;;;16.13;51.51;101323.41;5195454;28;20041;-83
2023/05/04 09:51:41;;;;;;;0.30;0.30;;;;;;;16.21;51.24;101329.25;5199566;28;20018;-82
2023/05/04 09:54:36;;;;;;;0.75;0.75;;;;;;;16.33;50.67;101326.09;5209922;28;20037;-83
2023/05/04 09:57:27;;;;;;;0.30;0.30;;;;;;;16.57;50.78;101328.63;5192906;28;20163;-83
2023/05/04 10:00:18;;;;;;;0.57;0.57;;;;;;;16.48;50.40;101326.38;5183039;28;20033;-83
2023/05/04 10:03:09;;;;;;;0.85;0.77;;;;;;;16.64;49.65;101327.47;5185827;28;20115;-83
2023/05/04 10:06:03;;;;;;;4.80;1.75;;;;;;;16.76;49.60;101317.25;5197155;28;20040;-82
2023/05/04 10:08:55;;;;;;;0.40;0.40;;;;;;;16.70;50.74;101313.06;5185402;28;20038;-82
2023/05/04 10:11:47;;;;;;;0.47;0.47;;;;;;;16.87;50.27;101315.00;5188142;28;20025;-82
2023/05/04 10:14:37;;;;;;;0.60;0.60;;;;;;;16.96;50.05;101300.50;5203718;28;20121;-81
2023/05/04 10:17:53;;;;;;;0.65;0.65;;;;;;;17.06;49.80;101304.44;5197272;28;20064;-82
2023/05/04 10:21:16;;;;;;;0.28;0.28;;;;;;;17.07;50.47;101300.00;5184236;28;20065;-82
2023/05/04 10:24:52;;;;;;;0.28;0.28;;;;;;;17.28;49.27;101288.44;5189113;28;20053;-82
2023/05/04 10:28:13;;;;;;;0.52;0.52;;;;;;;17.37;50.30;101292.44;5178954;28;20045;-82
2023/05/04 10:31:05;;;;;;;1.33;0.77;;;;;;;17.48;47.54;101291.94;5205668;28;20056;-82
2023/05/04 10:33:56;;;;;;;0.40;0.40;;;;;;;17.43;48.34;101278.03;5194746;28;20041;-82
2023/05/04 10:36:47;;;;;;;0.30;0.30;;;;;;;17.47;48.40;101276.97;5185101;28;20575;-83
2023/05/04 10:39:38;;;;;;;0.50;0.50;;;;;;;17.78;47.37;101270.19;5206583;28;20030;-83
2023/05/04 10:42:39;;;;;;;0.47;0.47;;;;;;;17.98;46.20;101271.00;5188713;28;20046;-82
2023/05/04 10:45:38;;;;;;;0.50;0.50;;;;;;;17.89;46.26;101261.69;5201211;28;20038;-82
2023/05/04 10:48:35;;;;;;;0.20;0.20;;;;;;;17.96;44.81;101255.16;5202158;28;20165;-82
2023/05/04 10:51:26;;;;;;;0.50;0.50;;;;;;;18.04;45.64;101265.41;5213595;28;20033;-83
2023/05/04 10:54:20;;;;;;;2.55;1.60;;;;;;;18.06;46.07;101258.22;5200715;28;20084;-83
2023/05/04 10:57:13;;;;;;;0.63;0.63;;;;;;;18.14;45.36;101245.41;5199998;28;20128;-83
2023/05/04 11:00:04;;;;;;;0.47;0.45;;;;;;;18.44;46.16;101242.13;5187501;28;20049;-83
2023/05/04 11:03:02;;;;;;;0.70;0.70;;;;;;;18.38;43.71;101237.16;5196109;28;20494;-84
2023/05/04 11:05:53;;;;;;;0.30;0.30;;;;;;;18.42;44.59;101235.19;5192731;28;20395;-83
2023/05/04 11:09:01;;;;;;;0.90;0.90;;;;;;;18.70;44.43;101223.97;5191495;28;20060;-84
2023/05/04 11:11:52;;;;;;;0.60;0.60;;;;;;;18.67;45.04;101216.13;5194504;28;20101;-84
2023/05/04 11:14:43;;;;;;;0.82;0.82;;;;;;;18.72;44.36;101206.09;5202102;28;20101;-84
2023/05/04 11:17:44;;;;;;;1.17;0.45;;;;;;;18.91;42.88;101203.34;5185159;28;20265;-83
2023/05/04 11:20:35;;;;;;;3.67;1.80;;;;;;;18.92;42.35;101188.22;5200510;28;20120;-83
2023/05/04 11:23:27;;;;;;;12.80;2.67;;;;;;;18.85;43.32;101187.69;5182678;28;20034;-84
2023/05/04 11:26:18;;;;;;;0.45;0.45;;;;;;;19.03;42.36;101186.72;5190111;28;20030;-85
2023/05/04 11:29:15;;;;;;;1.02;0.93;;;;;;;19.07;41.13;101175.94;5184011;28;20501;-83
2023/05/04 11:32:06;;;;;;;0.40;0.40;;;;;;;19.32;40.02;101175.41;5198152;28;20149;-84
2023/05/04 11:34:56;;;;;;;0.35;0.35;;;;;;;19.31;41.88;101171.88;5196017;28;20030;-85
2023/05/04 11:37:49;;;;;;;0.28;0.28;;;;;;;19.38;41.84;101168.88;5186898;28;20037;-84
2023/05/04 11:40:50;;;;;;;0.30;0.30;;;;;;;19.49;40.95;101167.31;5181756;28;20029;-86
2023/05/04 11:43:43;;;;;;;0.20;0.20;;;;;;;19.58;41.36;101154.41;5182824;28;20657;-84
2023/05/04 11:46:34;;;;;;;1.15;1.05;;;;;;;19.74;41.47;101152.56;5191445;28;20461;-84
2023/05/04 11:49:26;;;;;;;0.45;0.45;;;;;;;19.86;39.74;101142.19;5188524;28;20037;-84
2023/05/04 11:52:23;;;;;;;1.20;0.73;;;;;;;19.99;39.94;101144.97;5190116;28;20045;-84
2023/05/04 11:55:30;;;;;;;0.47;0.47;;;;;;;19.86;41.26;101144.84;5189668;28;20098;-84
2023/05/04 11:58:24;;;;;;;0.35;0.30;;;;;;;20.04;40.45;101141.06;5199928;28;20046;-85
2023/05/04 12:01:16;;;;;;;0.98;0.65;;;;;;;20.16;37.80;101144.81;5185328;28;20025;-83
2023/05/04 12:04:07;;;;;;;0.50;0.50;;;;;;;20.40;38.96;101142.44;5186948;28;20317;-85
2023/05/04 12:06:58;;;;;;;0.43;0.43;;;;;;;20.38;37.54;101144.31;5188274;28;20049;-84
2023/05/04 12:09:55;;;;;;;0.50;0.50;;;;;;;20.29;36.99;101128.91;5193691;28;20063;-85
2023/05/04 12:12:46;;;;;;;0.63;0.63;;;;;;;20.55;38.01;101129.09;5184623;28;20046;-84
2023/05/04 12:15:37;;;;;;;0.50;0.50;;;;;;;20.58;38.34;101135.09;5183221;28;20093;-84
2023/05/04 12:18:28;;;;;;;0.50;0.50;;;;;;;20.75;36.88;101120.72;5184750;28;20045;-84
2023/05/04 12:21:22;;;;;;;0.57;0.57;;;;;;;20.69;38.06;101125.56;5196621;28;20149;-85
2023/05/04 12:24:13;;;;;;;0.45;0.45;;;;;;;20.80;37.34;101111.56;5200117;28;20410;-85
2023/05/04 12:27:04;;;;;;;0.20;0.20;;;;;;;21.03;37.17;101116.28;5196549;28;20048;-84
2023/05/04 12:29:55;;;;;;;0.45;0.45;;;;;;;21.12;37.26;101112.16;5202125;28;20033;-85
2023/05/04 12:32:46;;;;;;;0.90;0.63;;;;;;;21.30;36.60;101120.75;5205628;28;20045;-86
2023/05/04 12:35:37;;;;;;;0.63;0.63;;;;;;;21.21;35.43;101121.38;5202285;28;20025;-85
2023/05/04 12:38:38;;;;;;;0.20;0.20;;;;;;;21.35;34.61;101113.31;5212271;28;20056;-85
2023/05/04 12:41:30;;;;;;;0.45;0.45;;;;;;;21.48;35.12;101108.03;5186127;28;20038;-85
2023/05/04 12:44:20;;;;;;;0.63;0.63;;;;;;;21.58;35.97;101097.59;5200142;28;20037;-84
2023/05/04 12:47:12;;;;;;;0.45;0.45;;;;;;;21.63;33.43;101095.47;5194281;28;20064;-84
2023/05/04 12:50:04;;;;;;;0.50;0.50;;;;;;;21.67;34.57;101096.97;5188688;28;20056;-84
2023/05/04 12:52:55;;;;;;;0.52;0.52;;;;;;;21.92;36.14;101094.41;5202821;28;20060;-84
2023/05/04 12:55:45;;;;;;;0.20;0.20;;;;;;;21.93;36.39;101089.00;5189691;28;20022;-85
2023/05/04 12:58:36;;;;;;;0.20;0.20;;;;;;;22.07;35.07;101080.00;5199359;28;20057;-85
2023/05/04 13:01:27;;;;;;;0.30;0.30;;;;;;;22.15;35.30;101063.44;5185040;28;20034;-85
2023/05/04 13:04:18;;;;;;;3.85;0.50;;;;;;;22.19;33.59;101066.72;5196460;28;20115;-84
2023/05/04 13:07:09;;;;;;;0.40;0.40;;;;;;;22.32;33.86;101064.88;5198343;28;20603;-85
2023/05/04 13:10:00;;;;;;;0.73;0.73;;;;;;;22.32;32.58;101054.19;5184771;28;20037;-85
2023/05/04 13:12:51;;;;;;;4.15;0.82;;;;;;;22.74;33.68;101048.56;5171119;28;20499;-84
2023/05/04 13:15:43;;;;;;;0.30;0.30;;;;;;;22.51;33.95;101040.41;5189317;28;20053;-85
2023/05/04 13:18:33;;;;;;;0.50;0.50;;;;;;;22.60;34.69;101047.75;5174008;28;20088;-85
2023/05/04 13:21:24;;;;;;;0.73;0.73;;;;;;;22.83;33.41;101041.66;5195826;28;20374;-85
2023/05/04 13:24:15;;;;;;;0.70;0.70;;;;;;;22.87;32.27;101037.81;5181986;28;20037;-84
2023/05/04 13:27:06;;;;;;;0.70;0.68;;;;;;;22.83;34.38;101039.88;5180738;28;20462;-85
2023/05/04 13:29:59;;;;;;;0.40;0.40;;;;;;;23.07;32.57;101028.31;5175659;28;20579;-84